createdAt,value
2019-05-29T00:05:59.885Z,99651.11
2019-05-29T00:16:03.479Z,99672.02
2019-05-29T00:26:08.240Z,99688.63
2019-05-29T00:36:12.334Z,99698.09
2019-05-29T00:46:16.064Z,99709.72
2019-05-29T00:56:19.603Z,99718.68
2019-05-29T01:06:23.153Z,99727.75
2019-05-29T01:16:26.686Z,99734.00
2019-05-29T01:26:30.250Z,99744.35
2019-05-29T01:36:33.794Z,99747.56
2019-05-29T01:46:37.323Z,99759.61
2019-05-29T01:56:40.892Z,99781.91
2019-05-29T02:06:44.457Z,99793.99
2019-05-29T02:16:48.008Z,99806.05
2019-05-29T02:26:51.549Z,99823.86
2019-05-29T02:36:55.153Z,99847.45
2019-05-29T02:46:58.721Z,99872.39
2019-05-29T02:57:02.271Z,99883.58
2019-05-29T03:07:05.810Z,99889.82
2019-05-29T03:17:09.391Z,99913.39
2019-05-29T03:27:12.952Z,99917.84
2019-05-29T03:37:16.481Z,99938.28
2019-05-29T03:47:20.046Z,99953.41
2019-05-29T03:57:23.587Z,99981.79
2019-05-29T04:07:27.149Z,99995.53
2019-05-29T04:17:32.307Z,100007.47
2019-05-29T04:27:38.281Z,100039.05
2019-05-29T04:37:42.018Z,100050.15
2019-05-29T04:47:45.604Z,100087.69
2019-05-29T04:57:50.993Z,100096.09
2019-05-29T05:07:54.643Z,100118.66
2019-05-29T05:17:58.237Z,100130.63
2019-05-29T05:28:01.826Z,100140.86
2019-05-29T05:38:05.815Z,100168.80
2019-05-29T05:48:09.395Z,100192.25
2019-05-29T05:58:12.972Z,100201.56
2019-05-29T06:08:16.545Z,100207.79
2019-05-29T06:18:21.839Z,100204.67
2019-05-29T06:28:25.390Z,100211.78
2019-05-29T06:38:28.967Z,100226.77
2019-05-29T06:48:46.244Z,100235.47
2019-05-29T06:58:38.147Z,100268.34
2019-05-29T07:08:45.089Z,100289.59
2019-05-29T07:19:23.432Z,100300.70
2019-05-29T07:29:06.940Z,100306.67
2019-05-29T07:39:03.482Z,100317.88
2019-05-29T07:49:17.995Z,100325.16
2019-05-29T07:59:21.530Z,100321.33
2019-05-29T08:09:25.075Z,100351.17
2019-05-29T08:19:28.980Z,100355.45
2019-05-29T08:29:32.534Z,100364.44
2019-05-29T08:39:37.088Z,100371.74
2019-05-29T08:49:41.759Z,100388.12
2019-05-29T08:59:46.386Z,100403.08
2019-05-29T09:09:51.213Z,100409.19
2019-05-29T09:19:55.083Z,100423.26
2019-05-29T09:29:58.645Z,100437.98
2019-05-29T09:40:02.187Z,100448.48
2019-05-29T09:50:08.214Z,100471.64
2019-05-29T10:00:11.766Z,100464.91
2019-05-29T10:10:16.925Z,100473.33
2019-05-29T10:20:20.583Z,100482.18
2019-05-29T10:30:24.236Z,100492.06
2019-05-29T10:40:27.847Z,100494.83
2019-05-29T10:50:31.475Z,100500.67
2019-05-29T11:00:38.649Z,100502.30
2019-05-29T11:10:40.353Z,100510.89
2019-05-29T11:20:43.944Z,100517.67
2019-05-29T11:30:48.626Z,100518.67
2019-05-29T11:41:22.358Z,100518.76
2019-05-29T11:50:58.302Z,100531.27
2019-05-29T12:01:01.877Z,100541.61
2019-05-29T12:11:07.121Z,100540.31
2019-05-29T12:21:10.984Z,100542.19
2019-05-29T12:31:14.557Z,100545.31
2019-05-29T12:41:18.152Z,100563.61
2019-05-29T12:51:21.733Z,100569.03
2019-05-29T13:01:25.328Z,100567.31
2019-05-29T13:11:28.906Z,100559.34
2019-05-29T13:21:32.488Z,100556.30
2019-05-29T13:31:36.060Z,100562.17
2019-05-29T13:41:39.632Z,100556.87
2019-05-29T13:51:43.241Z,100564.45
2019-05-29T14:01:48.596Z,100564.03
2019-05-29T14:11:52.320Z,100562.73
2019-05-29T14:21:55.952Z,100561.41
2019-05-29T14:32:00.825Z,100573.94
2019-05-29T14:42:06.038Z,100578.84
2019-05-29T14:52:11.339Z,100590.50
2019-05-29T15:02:22.763Z,100592.28
2019-05-29T15:12:20.215Z,100583.94
2019-05-29T15:22:23.794Z,100583.94
2019-05-29T15:32:27.355Z,100611.02
2019-05-29T15:42:30.945Z,100615.97
2019-05-29T15:52:34.532Z,100609.75
2019-05-29T16:02:38.096Z,100624.03
2019-05-29T16:12:41.675Z,100620.09
2019-05-29T16:22:45.286Z,100641.00
2019-05-29T16:32:48.851Z,100648.63
2019-05-29T16:42:52.398Z,100656.23
2019-05-29T16:52:55.970Z,100655.38
2019-05-29T17:02:59.525Z,100666.05
2019-05-29T17:13:03.340Z,100674.59
2019-05-29T17:23:06.898Z,100687.12
2019-05-29T17:33:10.472Z,100715.05
2019-05-29T17:43:15.339Z,100721.70
2019-05-29T17:53:19.991Z,100732.87
2019-05-29T18:03:24.206Z,100743.09
2019-05-29T18:13:27.898Z,100746.24
2019-05-29T18:23:31.474Z,100760.50
2019-05-29T18:33:35.020Z,100770.70
2019-05-29T18:43:38.567Z,100780.48
2019-05-29T18:53:42.183Z,100786.02
2019-05-29T19:03:45.767Z,100790.59
2019-05-29T19:13:49.552Z,100810.00
2019-05-29T19:23:53.098Z,100818.41
2019-05-29T19:33:56.697Z,100825.52
2019-05-29T19:44:00.254Z,100833.82
2019-05-29T19:54:05.982Z,100845.14
2019-05-29T20:04:09.634Z,100856.80
2019-05-29T20:14:13.216Z,100851.97
2019-05-29T20:24:16.815Z,100870.30
2019-05-29T20:34:20.385Z,100879.66
2019-05-29T20:44:24.329Z,100895.31
2019-05-29T20:54:27.871Z,100906.44
2019-05-29T21:04:33.054Z,100918.97
2019-05-29T21:14:37.830Z,100919.40
2019-05-29T21:24:46.425Z,100926.09
2019-05-29T21:34:46.784Z,100931.95
2019-05-29T21:44:50.358Z,100943.53
2019-05-29T21:54:53.935Z,100952.88
2019-05-29T22:04:57.500Z,100957.33
2019-05-29T22:15:02.532Z,100967.63
2019-05-29T22:25:07.438Z,100975.64
2019-05-29T22:35:11.023Z,100975.64
2019-05-29T22:45:14.611Z,100993.41
2019-05-29T22:55:18.196Z,100990.77
2019-05-29T23:05:21.825Z,100998.36
2019-05-29T23:15:25.392Z,100999.69
2019-05-29T23:25:29.273Z,100991.19
2019-05-29T23:35:33.168Z,100999.42
2019-05-29T23:45:37.049Z,101005.36
2019-05-29T23:55:40.828Z,101020.17
